Time;durP1;ratioP1;P1;durP2;ratioP2;P2;SDS_P1;SDS_P2;PMS_P1;PMS_P2;Temp;Humidity;BMP_temperature;BMP_pressure;BME280_temperature;BME280_humidity;BME280_pressure;Samples;Min_cycle;Max_cycle;Signal;HPM_P1;HPM_P2
2023/04/12 00:00:39;;;;;;;;;;;;;;;19.33;56.24;98420.16;2063914;28;19933;-49
2023/04/12 00:01:41;;;;;;;;;;;;;;;19.31;56.46;98414.19;2076401;28;20050;-50
2023/04/12 00:02:43;;;;;;;;;;;;;;;19.31;56.49;98414.19;2064171;28;19929;-54
2023/04/12 00:03:49;;;;;;;;;;;;;;;19.31;56.34;98416.06;2068751;28;19933;-50
2023/04/12 00:04:54;;;;;;;;;;;;;;;19.31;56.41;98421.44;2062398;28;19932;-52
2023/04/12 00:05:55;;;;;;;;;;;;;;;19.29;56.48;98418.13;2065289;28;20576;-54
2023/04/12 00:06:56;;;;;;;;;;;;;;;19.29;56.34;98413.56;2064757;28;21187;-49
2023/04/12 00:07:59;;;;;;;;;;;;;;;19.29;56.14;98412.75;2064372;28;20472;-48
2023/04/12 00:09:01;;;;;;;;;;;;;;;19.28;56.12;98409.22;2065008;28;19960;-52
2023/04/12 00:10:02;;;;;;;;;;;;;;;19.28;56.44;98417.31;2061457;28;19928;-54
2023/04/12 00:11:03;;;;;;;;;;;;;;;19.27;56.28;98414.81;2062018;28;19933;-54
2023/04/12 00:12:05;;;;;;;;;;;;;;;19.27;56.42;98409.44;2067010;28;19986;-51
2023/04/12 00:13:05;;;;;;;;;;;;;;;19.25;56.16;98411.50;2064752;28;19940;-54
2023/04/12 00:14:07;;;;;;;;;;;;;;;19.25;56.24;98403.44;2066190;28;20411;-54
2023/04/12 00:15:08;;;;;;;;;;;;;;;19.24;56.36;98405.31;2068029;28;20029;-52
2023/04/12 00:16:10;;;;;;;;;;;;;;;19.25;56.10;98400.75;2084071;28;19982;-54
2023/04/12 00:17:10;;;;;;;;;;;;;;;19.28;56.15;98403.00;2074894;28;19939;-50
2023/04/12 00:18:13;;;;;;;;;;;;;;;19.25;56.30;98404.28;2074061;28;19932;-46
2023/04/12 00:19:15;;;;;;;;;;;;;;;19.23;56.08;98398.28;2073612;28;19937;-46
2023/04/12 00:20:17;;;;;;;;;;;;;;;19.24;56.13;98399.09;2075300;28;19937;-49
2023/04/12 00:21:18;;;;;;;;;;;;;;;19.22;56.24;98399.31;2072728;28;19933;-49
2023/04/12 00:22:20;;;;;;;;;;;;;;;19.21;56.12;98392.28;2076269;28;19928;-49
2023/04/12 00:23:20;;;;;;;;;;;;;;;19.23;56.03;98397.47;2071537;28;20019;-47
2023/04/12 00:24:22;;;;;;;;;;;;;;;19.22;56.05;98398.50;2073637;28;19933;-47
2023/04/12 00:25:22;;;;;;;;;;;;;;;19.19;56.47;98392.53;2074813;28;20341;-48
2023/04/12 00:26:25;;;;;;;;;;;;;;;19.18;56.54;98390.84;2074201;28;19975;-49
2023/04/12 00:27:25;;;;;;;;;;;;;;;19.19;56.38;98394.34;2074834;28;19933;-48
2023/04/12 00:28:27;;;;;;;;;;;;;;;19.17;56.12;98386.53;2070574;28;19932;-46
2023/04/12 00:29:27;;;;;;;;;;;;;;;19.18;56.33;98387.34;2073534;28;19936;-48
2023/04/12 00:30:29;;;;;;;;;;;;;;;19.17;56.15;98385.72;2074480;28;20278;-46
2023/04/12 00:31:29;;;;;;;;;;;;;;;19.17;56.26;98378.47;2083855;28;20888;-46
2023/04/12 00:32:31;;;;;;;;;;;;;;;19.16;56.03;98390.22;2075098;28;20019;-48
2023/04/12 00:33:34;;;;;;;;;;;;;;;19.16;56.18;98378.66;2075180;28;19932;-47
2023/04/12 00:34:35;;;;;;;;;;;;;;;19.16;56.18;98384.03;2070259;28;19933;-46
2023/04/12 00:35:36;;;;;;;;;;;;;;;19.15;56.18;98380.53;2073661;28;19932;-47
2023/04/12 00:36:37;;;;;;;;;;;;;;;19.16;56.05;98376.78;2076621;28;19936;-46
2023/04/12 00:37:38;;;;;;;;;;;;;;;19.15;56.16;98379.72;2074780;28;19937;-50
2023/04/12 00:38:39;;;;;;;;;;;;;;;19.15;56.14;98377.03;2075584;28;19968;-45
2023/04/12 00:39:40;;;;;;;;;;;;;;;19.14;56.41;98375.38;2074672;28;19928;-48
2023/04/12 00:40:41;;;;;;;;;;;;;;;19.12;56.13;98372.88;2076376;28;19968;-46
2023/04/12 00:41:41;;;;;;;;;;;;;;;19.14;56.24;98372.69;2076158;28;22998;-47
2023/04/12 00:42:43;;;;;;;;;;;;;;;19.12;55.97;98374.75;2073853;28;19932;-49
2023/04/12 00:43:43;;;;;;;;;;;;;;;19.12;56.02;98372.88;2072688;28;19932;-49
2023/04/12 00:44:45;;;;;;;;;;;;;;;19.10;56.05;98372.28;2073823;28;20014;-46
2023/04/12 00:45:46;;;;;;;;;;;;;;;19.12;55.90;98374.75;2076076;28;19929;-50
2023/04/12 00:46:47;;;;;;;;;;;;;;;19.12;56.28;98372.06;2079995;28;20019;-48
2023/04/12 00:47:48;;;;;;;;;;;;;;;19.11;56.02;98373.94;2073740;28;20949;-49
2023/04/12 00:48:50;;;;;;;;;;;;;;;19.09;56.15;98372.50;2073953;28;19964;-49
2023/04/12 00:49:51;;;;;;;;;;;;;;;19.10;56.31;98372.28;2074405;28;19937;-48
2023/04/12 00:50:54;;;;;;;;;;;;;;;19.10;56.00;98372.28;2074861;28;19929;-50
2023/04/12 00:51:54;;;;;;;;;;;;;;;19.10;56.27;98374.13;2074651;28;19928;-49
2023/04/12 00:52:57;;;;;;;;;;;;;;;19.06;56.27;98371.06;2073915;28;20006;-47
2023/04/12 00:53:58;;;;;;;;;;;;;;;19.07;56.32;98372.69;2074456;28;19977;-48
2023/04/12 00:55:00;;;;;;;;;;;;;;;19.07;56.22;98372.69;2076067;28;19924;-48
2023/04/12 00:56:02;;;;;;;;;;;;;;;19.05;56.42;98371.25;2077147;28;19983;-47
2023/04/12 00:57:03;;;;;;;;;;;;;;;19.04;56.18;98365.06;2074958;28;19932;-47
2023/04/12 00:58:04;;;;;;;;;;;;;;;19.05;56.17;98368.56;2074538;28;19981;-45
2023/04/12 00:59:06;;;;;;;;;;;;;;;19.05;55.99;98368.56;2075393;28;19971;-46
2023/04/12 01:00:09;;;;;;;;;;;;;;;19.07;55.89;98374.56;2074934;28;19932;-54
2023/04/12 01:01:10;;;;;;;;;;;;;;;19.06;56.26;98371.06;2080481;28;20015;-48
2023/04/12 01:02:11;;;;;;;;;;;;;;;19.05;55.99;98368.56;2081765;28;19974;-48
2023/04/12 01:03:15;;;;;;;;;;;;;;;19.06;56.08;98375.63;2084898;28;19989;-50
2023/04/12 01:04:17;;;;;;;;;;;;;;;19.05;56.00;98379.31;2087470;28;19957;-49
2023/04/12 01:05:20;;;;;;;;;;;;;;;19.04;55.99;98370.44;2087099;28;20679;-49
2023/04/12 01:06:32;;;;;;;;;;;;;;;19.02;55.97;98377.06;2087556;28;19964;-54
2023/04/12 01:07:43;;;;;;;;;;;;;;;19.01;56.10;98373.56;2087807;28;20003;-48
2023/04/12 01:08:51;;;;;;;;;;;;;;;19.00;56.33;98377.28;2084682;28;20536;-53
2023/04/12 01:09:56;;;;;;;;;;;;;;;19.01;56.04;98364.69;2083531;28;20987;-53
2023/04/12 01:11:07;;;;;;;;;;;;;;;19.00;56.19;98373.75;2086058;28;19929;-51
2023/04/12 01:12:11;;;;;;;;;;;;;;;19.00;56.06;98365.69;2086107;28;19936;-50
2023/04/12 01:13:20;;;;;;;;;;;;;;;18.97;56.14;98354.34;2086507;28;19932;-49
2023/04/12 01:14:27;;;;;;;;;;;;;;;19.00;56.11;98358.47;2084036;28;19936;-52
2023/04/12 01:15:31;;;;;;;;;;;;;;;19.00;56.14;98355.78;2085389;28;19948;-53
2023/04/12 01:16:34;;;;;;;;;;;;;;;18.98;56.03;98358.69;2086249;28;19985;-54
2023/04/12 01:17:38;;;;;;;;;;;;;;;18.98;56.01;98353.31;2080167;28;19933;-51
2023/04/12 01:18:40;;;;;;;;;;;;;;;18.97;55.89;98348.97;2069105;28;19954;-52
2023/04/12 01:19:56;;;;;;;;;;;;;;;18.98;56.15;98355.16;2073273;28;19936;-54
2023/04/12 01:21:00;;;;;;;;;;;;;;;18.94;56.37;98352.09;2069075;28;20031;-51
2023/04/12 01:22:07;;;;;;;;;;;;;;;18.95;56.16;98355.59;2069340;28;19979;-54
2023/04/12 01:23:32;;;;;;;;;;;;;;;18.93;56.10;98345.03;2073143;28;19939;-49
2023/04/12 01:24:37;;;;;;;;;;;;;;;18.93;55.76;98347.72;2050311;28;20043;-52
2023/04/12 01:25:40;;;;;;;;;;;;;;;18.94;55.85;98348.56;2073279;28;19925;-51
2023/04/12 01:26:43;;;;;;;;;;;;;;;18.93;56.21;98350.41;2069361;28;19932;-54
2023/04/12 01:27:48;;;;;;;;;;;;;;;18.94;56.13;98346.72;2071871;28;19933;-50
2023/04/12 01:28:51;;;;;;;;;;;;;;;18.95;56.18;98347.53;2070028;28;20061;-54
2023/04/12 01:29:52;;;;;;;;;;;;;;;18.93;55.99;98339.69;2072680;28;19928;-53
2023/04/12 01:30:53;;;;;;;;;;;;;;;18.92;55.97;98346.09;2069848;28;20017;-47
2023/04/12 01:31:57;;;;;;;;;;;;;;;18.92;56.02;98343.41;2075317;28;20017;-54
2023/04/12 01:32:59;;;;;;;;;;;;;;;18.93;56.02;98347.72;2076245;28;19924;-52
2023/04/12 01:34:02;;;;;;;;;;;;;;;18.92;56.04;98339.91;2074302;28;19987;-51
2023/04/12 01:35:06;;;;;;;;;;;;;;;18.91;56.06;98340.91;2071954;28;19936;-53
2023/04/12 01:36:10;;;;;;;;;;;;;;;18.89;55.88;98338.47;2073527;28;19929;-48
2023/04/12 01:37:12;;;;;;;;;;;;;;;18.88;56.08;98333.28;2077619;28;19924;-50
2023/04/12 01:38:13;;;;;;;;;;;;;;;18.89;55.90;98334.97;2086147;28;19936;-50
2023/04/12 01:39:14;;;;;;;;;;;;;;;18.89;55.88;98338.47;2083294;28;19932;-54
2023/04/12 01:40:17;;;;;;;;;;;;;;;18.88;55.98;98334.09;2075407;28;20980;-52
2023/04/12 01:41:18;;;;;;;;;;;;;;;18.88;55.99;98335.97;2071794;28;19932;-52
2023/04/12 01:42:20;;;;;;;;;;;;;;;18.90;55.89;98339.28;2070667;28;20253;-54
2023/04/12 01:43:22;;;;;;;;;;;;;;;18.90;55.88;98340.09;2065822;28;19928;-54
2023/04/12 01:44:23;;;;;;;;;;;;;;;18.88;56.03;98335.97;2069448;28;20481;-52
2023/04/12 01:45:24;;;;;;;;;;;;;;;18.88;56.04;98335.97;2068170;28;19954;-50
2023/04/12 01:46:25;;;;;;;;;;;;;;;18.87;56.03;98335.16;2072131;28;19982;-52
2023/04/12 01:47:26;;;;;;;;;;;;;;;18.87;55.76;98328.97;2069605;28;20711;-49
2023/04/12 01:48:28;;;;;;;;;;;;;;;18.86;56.20;98330.81;2079736;28;19991;-48
2023/04/12 01:49:31;;;;;;;;;;;;;;;18.87;56.11;98332.47;2074429;28;19936;-54
2023/04/12 01:50:35;;;;;;;;;;;;;;;18.87;55.71;98332.47;2067003;28;20475;-53
2023/04/12 01:51:41;;;;;;;;;;;;;;;18.86;55.94;98333.53;2078243;28;19982;-52
2023/04/12 01:52:45;;;;;;;;;;;;;;;18.83;55.92;98333.91;2072005;28;19939;-50
2023/04/12 01:53:48;;;;;;;;;;;;;;;18.84;56.08;98330.22;2067629;28;19933;-53
2023/04/12 01:54:51;;;;;;;;;;;;;;;18.84;55.85;98334.75;2071322;28;19971;-54
2023/04/12 01:55:56;;;;;;;;;;;;;;;18.84;56.03;98337.44;2070687;28;20006;-53
2023/04/12 01:57:00;;;;;;;;;;;;;;;18.83;55.71;98328.53;2072077;28;19947;-51
2023/04/12 01:58:01;;;;;;;;;;;;;;;18.82;56.07;98326.09;2072115;28;19928;-54
2023/04/12 01:59:05;;;;;;;;;;;;;;;18.84;55.93;98326.69;2073293;28;19936;-47
2023/04/12 02:00:06;;;;;;;;;;;;;;;18.83;55.75;98328.53;2073331;28;20022;-47
2023/04/12 02:01:09;;;;;;;;;;;;;;;18.81;56.04;98330.63;2077424;28;19928;-48
2023/04/12 02:02:10;;;;;;;;;;;;;;;18.81;55.78;98329.81;2074349;28;19956;-45
2023/04/12 02:03:12;;;;;;;;;;;;;;;18.81;55.71;98336.00;2070102;28;19939;-47
2023/04/12 02:04:13;;;;;;;;;;;;;;;18.83;56.12;98333.09;2075084;28;19970;-48
2023/04/12 02:05:15;;;;;;;;;;;;;;;18.80;55.78;98334.34;2071828;28;19929;-48
2023/04/12 02:06:18;;;;;;;;;;;;;;;18.78;56.09;98336.44;2071536;28;19936;-48
2023/04/12 02:07:19;;;;;;;;;;;;;;;18.77;56.07;98339.31;2074321;28;19932;-49
2023/04/12 02:08:20;;;;;;;;;;;;;;;18.77;56.10;98340.13;2073006;28;20484;-48
2023/04/12 02:09:22;;;;;;;;;;;;;;;18.75;56.28;98336.88;2071141;28;19932;-48
2023/04/12 02:10:29;;;;;;;;;;;;;;;18.77;56.12;98326.72;2062870;28;20456;-49
2023/04/12 02:11:30;;;;;;;;;;;;;;;18.78;55.59;98335.59;2065672;28;20486;-47
2023/04/12 02:12:31;;;;;;;;;;;;;;;18.80;55.80;98333.53;2066999;28;21022;-48
2023/04/12 02:13:32;;;;;;;;;;;;;;;18.77;56.04;98333.94;2061767;28;20030;-47
2023/04/12 02:14:34;;;;;;;;;;;;;;;18.77;55.53;98329.41;2062548;28;19936;-47
2023/04/12 02:15:37;;;;;;;;;;;;;;;18.78;55.69;98336.44;2064605;28;19932;-48
2023/04/12 02:16:38;;;;;;;;;;;;;;;18.76;55.83;98327.75;2064942;28;20327;-49
2023/04/12 02:17:39;;;;;;;;;;;;;;;18.73;56.17;98331.66;2063569;28;20508;-48
2023/04/12 02:18:41;;;;;;;;;;;;;;;18.74;55.84;98322.56;2064526;28;20043;-46
2023/04/12 02:19:42;;;;;;;;;;;;;;;18.75;55.69;98316.19;2072897;28;19933;-49
2023/04/12 02:20:43;;;;;;;;;;;;;;;18.74;56.10;98311.00;2064772;28;19933;-48
2023/04/12 02:21:45;;;;;;;;;;;;;;;18.73;56.14;98306.66;2064653;28;20512;-48
2023/04/12 02:22:46;;;;;;;;;;;;;;;18.71;56.04;98306.84;2063451;28;20006;-48
2023/04/12 02:23:47;;;;;;;;;;;;;;;18.72;56.02;98308.53;2062284;28;19932;-48
2023/04/12 02:24:48;;;;;;;;;;;;;;;18.72;55.74;98307.69;2064263;28;20576;-48
2023/04/12 02:25:49;;;;;;;;;;;;;;;18.71;55.71;98309.53;2067121;28;19935;-51
2023/04/12 02:26:49;;;;;;;;;;;;;;;18.71;55.77;98314.91;2066999;28;20023;-50
2023/04/12 02:27:51;;;;;;;;;;;;;;;18.70;55.85;98315.97;2066151;28;19936;-46
2023/04/12 02:28:51;;;;;;;;;;;;;;;18.71;55.93;98314.09;2063955;28;20276;-46
2023/04/12 02:29:54;;;;;;;;;;;;;;;18.69;56.03;98316.16;2064212;28;20053;-47
2023/04/12 02:30:55;;;;;;;;;;;;;;;18.69;56.00;98322.38;2067585;28;19929;-48
2023/04/12 02:31:56;;;;;;;;;;;;;;;18.69;56.14;98321.53;2066138;28;21907;-48
2023/04/12 02:32:57;;;;;;;;;;;;;;;18.69;56.10;98326.91;2064400;28;20576;-47
2023/04/12 02:33:58;;;;;;;;;;;;;;;18.67;56.00;98323.63;2064876;28;19960;-48
2023/04/12 02:35:01;;;;;;;;;;;;;;;18.68;55.92;98325.28;2071470;28;20010;-45
2023/04/12 02:36:03;;;;;;;;;;;;;;;18.69;55.97;98326.91;2067204;28;19937;-48
2023/04/12 02:37:03;;;;;;;;;;;;;;;18.70;55.83;98328.56;2063960;28;20019;-48
2023/04/12 02:38:07;;;;;;;;;;;;;;;18.71;55.83;98327.53;2065584;28;19929;-45
2023/04/12 02:39:07;;;;;;;;;;;;;;;18.71;55.66;98332.91;2067166;28;19929;-48
2023/04/12 02:40:10;;;;;;;;;;;;;;;18.70;55.96;98331.25;2063489;28;19940;-46
2023/04/12 02:41:15;;;;;;;;;;;;;;;18.68;55.84;98331.47;2066953;28;19936;-50
2023/04/12 02:42:17;;;;;;;;;;;;;;;18.67;56.01;98329.00;2065452;28;19933;-50
2023/04/12 02:43:17;;;;;;;;;;;;;;;18.69;56.00;98332.28;2060750;28;20291;-45
2023/04/12 02:44:19;;;;;;;;;;;;;;;18.68;55.77;98331.47;2064388;28;19959;-46
2023/04/12 02:45:21;;;;;;;;;;;;;;;18.67;55.87;98326.31;2066889;28;19986;-48
2023/04/12 02:46:23;;;;;;;;;;;;;;;18.67;56.00;98320.94;2074446;28;19928;-46
2023/04/12 02:47:27;;;;;;;;;;;;;;;18.66;55.80;98328.16;2072790;28;19981;-48
2023/04/12 02:48:28;;;;;;;;;;;;;;;18.66;55.72;98327.34;2069920;28;19940;-47
2023/04/12 02:49:29;;;;;;;;;;;;;;;18.67;55.69;98329.00;2073446;28;19932;-50
2023/04/12 02:50:30;;;;;;;;;;;;;;;18.66;55.61;98324.66;2079024;28;20478;-51
2023/04/12 02:51:31;;;;;;;;;;;;;;;18.66;55.90;98327.34;2073911;28;19928;-46
2023/04/12 02:52:33;;;;;;;;;;;;;;;18.66;55.87;98321.97;2068933;28;20018;-48
2023/04/12 02:53:33;;;;;;;;;;;;;;;18.65;55.88;98328.38;2072779;28;21136;-52
2023/04/12 02:54:34;;;;;;;;;;;;;;;18.66;55.61;98319.28;2072317;28;19940;-48
2023/04/12 02:55:35;;;;;;;;;;;;;;;18.66;55.87;98319.28;2075916;28;20578;-47
2023/04/12 02:56:37;;;;;;;;;;;;;;;18.65;56.01;98317.63;2072434;28;19936;-49
2023/04/12 02:57:37;;;;;;;;;;;;;;;18.63;55.74;98317.84;2071321;28;20597;-48
2023/04/12 02:58:39;;;;;;;;;;;;;;;18.62;55.95;98315.38;2073434;28;19983;-46
2023/04/12 02:59:40;;;;;;;;;;;;;;;18.63;55.61;98306.28;2078393;28;20876;-49
2023/04/12 03:00:44;;;;;;;;;;;;;;;18.63;56.01;98306.28;2085835;28;19929;-46
2023/04/12 03:01:45;;;;;;;;;;;;;;;18.64;55.79;98300.69;2072942;28;19978;-47
2023/04/12 03:02:48;;;;;;;;;;;;;;;18.62;55.63;98305.44;2072383;28;19940;-50
2023/04/12 03:03:49;;;;;;;;;;;;;;;18.62;56.09;98304.63;2072321;28;20375;-47
2023/04/12 03:04:50;;;;;;;;;;;;;;;18.64;55.72;98305.25;2069345;28;19936;-46
2023/04/12 03:05:52;;;;;;;;;;;;;;;18.63;55.74;98306.28;2077944;28;19929;-47
2023/04/12 03:06:52;;;;;;;;;;;;;;;18.62;56.08;98304.63;2073085;28;19929;-47
2023/04/12 03:07:54;;;;;;;;;;;;;;;18.61;55.75;98316.38;2072896;28;19951;-46
2023/04/12 03:08:56;;;;;;;;;;;;;;;18.60;55.78;98312.06;2072791;28;19935;-46
2023/04/12 03:09:57;;;;;;;;;;;;;;;18.61;55.71;98314.56;2072517;28;19936;-47
2023/04/12 03:10:58;;;;;;;;;;;;;;;18.61;55.80;98313.72;2073352;28;19981;-48
2023/04/12 03:11:59;;;;;;;;;;;;;;;18.62;55.89;98304.63;2073347;28;19932;-46
2023/04/12 03:13:01;;;;;;;;;;;;;;;18.61;55.88;98301.13;2072991;28;19940;-48
2023/04/12 03:14:01;;;;;;;;;;;;;;;18.62;55.88;98302.75;2072543;28;19950;-49
2023/04/12 03:15:03;;;;;;;;;;;;;;;18.62;55.90;98296.56;2072406;28;19963;-48
2023/04/12 03:16:20;;;;;;;;;;;;;;;18.63;55.90;98306.28;2072557;28;20386;-48
2023/04/12 03:17:23;;;;;;;;;;;;;;;18.64;55.79;98307.94;2072935;28;19928;-49
2023/04/12 03:18:24;;;;;;;;;;;;;;;18.63;55.80;98299.03;2072590;28;19940;-47
2023/04/12 03:19:25;;;;;;;;;;;;;;;18.63;55.67;98306.28;2074079;28;20001;-47
2023/04/12 03:20:27;;;;;;;;;;;;;;;18.59;55.35;98305.88;2073970;28;19929;-50
2023/04/12 03:21:28;;;;;;;;;;;;;;;18.61;55.73;98302.97;2078657;28;19933;-52
2023/04/12 03:22:29;;;;;;;;;;;;;;;18.61;55.67;98300.28;2073702;28;21048;-47
2023/04/12 03:23:31;;;;;;;;;;;;;;;18.60;55.84;98307.50;2070374;28;20307;-46
2023/04/12 03:24:33;;;;;;;;;;;;;;;18.59;55.81;98311.25;2072959;28;19973;-48
2023/04/12 03:25:35;;;;;;;;;;;;;;;18.60;55.67;98312.88;2072847;28;19940;-46
2023/04/12 03:26:36;;;;;;;;;;;;;;;18.60;55.76;98312.88;2073787;28;19928;-45
2023/04/12 03:27:37;;;;;;;;;;;;;;;18.60;55.56;98301.31;2076226;28;19939;-49
2023/04/12 03:28:38;;;;;;;;;;;;;;;18.60;55.83;98306.69;2079403;28;20501;-49
2023/04/12 03:29:39;;;;;;;;;;;;;;;18.61;55.67;98311.88;2075355;28;19936;-46
2023/04/12 03:30:40;;;;;;;;;;;;;;;18.63;55.60;98307.09;2074077;28;20015;-49
2023/04/12 03:31:41;;;;;;;;;;;;;;;18.62;55.78;98296.56;2072912;28;20081;-49
2023/04/12 03:32:43;;;;;;;;;;;;;;;18.64;55.35;98302.56;2072573;28;20475;-48
2023/04/12 03:33:45;;;;;;;;;;;;;;;18.65;55.45;98301.53;2079264;28;20417;-49
2023/04/12 03:34:46;;;;;;;;;;;;;;;18.66;55.54;98305.84;2075028;28;19929;-47
2023/04/12 03:35:47;;;;;;;;;;;;;;;18.67;55.50;98300.28;2076024;28;20015;-47
2023/04/12 03:36:49;;;;;;;;;;;;;;;18.68;55.45;98306.47;2078315;28;20562;-50
2023/04/12 03:37:50;;;;;;;;;;;;;;;18.70;54.88;98297.16;2075340;28;22030;-47
2023/04/12 03:38:51;;;;;;;;;;;;;;;18.72;55.05;98300.47;2074256;28;19964;-46
2023/04/12 03:39:52;;;;;;;;;;;;;;;18.75;55.12;98294.69;2087476;28;19997;-46
2023/04/12 03:40:53;;;;;;;;;;;;;;;18.80;54.85;98293.22;2086374;28;19925;-47
2023/04/12 03:41:54;;;;;;;;;;;;;;;18.82;54.81;98293.84;2080609;28;19929;-46
2023/04/12 03:42:55;;;;;;;;;;;;;;;18.86;54.56;98293.22;2078403;28;19943;-49
2023/04/12 03:43:56;;;;;;;;;;;;;;;18.90;54.55;98288.22;2077687;28;20020;-49
2023/04/12 03:44:57;;;;;;;;;;;;;;;18.94;54.43;98289.44;2074199;28;20183;-48
2023/04/12 03:45:58;;;;;;;;;;;;;;;18.98;54.44;98296.88;2073341;28;19936;-46
2023/04/12 03:46:59;;;;;;;;;;;;;;;19.03;54.30;98295.38;2073463;28;19932;-47
2023/04/12 03:48:01;;;;;;;;;;;;;;;19.07;54.38;98294.75;2076855;28;19979;-49
2023/04/12 03:49:03;;;;;;;;;;;;;;;19.13;53.90;98288.50;2075063;28;19972;-48
2023/04/12 03:50:05;;;;;;;;;;;;;;;19.18;54.11;98290.56;2073873;28;19928;-46
2023/04/12 03:51:07;;;;;;;;;;;;;;;19.23;53.79;98282.69;2072252;28;19929;-48
2023/04/12 03:52:08;;;;;;;;;;;;;;;19.29;53.66;98284.50;2081188;28;19982;-48
2023/04/12 03:53:09;;;;;;;;;;;;;;;19.35;53.67;98280.94;2086334;28;20006;-48
2023/04/12 03:54:09;;;;;;;;;;;;;;;19.35;53.63;98278.25;2088753;28;19989;-48
2023/04/12 03:55:12;;;;;;;;;;;;;;;19.38;53.41;98277.81;2087704;28;20547;-47
2023/04/12 03:56:12;;;;;;;;;;;;;;;19.43;53.56;98269.91;2079706;28;20507;-47
2023/04/12 03:57:15;;;;;;;;;;;;;;;19.47;53.24;98275.66;2073486;28;19928;-49
2023/04/12 03:58:17;;;;;;;;;;;;;;;19.49;53.31;98276.28;2073506;28;20055;-46
2023/04/12 03:59:19;;;;;;;;;;;;;;;19.50;53.45;98274.41;2074140;28;20015;-47
2023/04/12 04:00:19;;;;;;;;;;;;;;;19.51;53.32;98266.13;2074342;28;19928;-45
2023/04/12 04:01:22;;;;;;;;;;;;;;;19.51;53.42;98271.53;2079826;28;19951;-50
2023/04/12 04:02:22;;;;;;;;;;;;;;;19.53;53.37;98277.50;2072414;28;19932;-49
2023/04/12 04:03:25;;;;;;;;;;;;;;;19.56;53.20;98273.56;2076249;28;19933;-47
2023/04/12 04:04:26;;;;;;;;;;;;;;;19.58;53.41;98274.97;2067626;28;19929;-49
2023/04/12 04:05:27;;;;;;;;;;;;;;;19.60;53.46;98272.06;2074001;28;19939;-49
2023/04/12 04:06:28;;;;;;;;;;;;;;;19.59;53.25;98267.75;2076691;28;19993;-45
2023/04/12 04:07:30;;;;;;;;;;;;;;;19.60;53.36;98272.88;2072885;28;21226;-46
2023/04/12 04:08:31;;;;;;;;;;;;;;;19.63;53.38;98269.75;2083245;28;20492;-50
2023/04/12 04:09:33;;;;;;;;;;;;;;;19.64;53.28;98270.59;2074594;28;19940;-46
2023/04/12 04:10:33;;;;;;;;;;;;;;;19.67;53.21;98277.41;2072354;28;19994;-49
2023/04/12 04:11:36;;;;;;;;;;;;;;;19.68;53.08;98276.41;2074050;28;19928;-50
2023/04/12 04:12:37;;;;;;;;;;;;;;;19.67;52.96;98272.88;2073633;28;19933;-46
2023/04/12 04:13:38;;;;;;;;;;;;;;;19.70;53.27;98264.38;2077389;28;19928;-49
2023/04/12 04:14:38;;;;;;;;;;;;;;;19.71;53.14;98271.41;2075737;28;19928;-46
2023/04/12 04:15:40;;;;;;;;;;;;;;;19.72;53.06;98266.84;2076479;28;19935;-48
2023/04/12 04:16:40;;;;;;;;;;;;;;;19.72;53.22;98267.66;2072890;28;19967;-47
2023/04/12 04:17:42;;;;;;;;;;;;;;;19.72;53.01;98275.72;2075018;28;19932;-50
2023/04/12 04:18:44;;;;;;;;;;;;;;;19.74;53.26;98276.34;2074093;28;19964;-46
2023/04/12 04:19:45;;;;;;;;;;;;;;;19.74;53.24;98270.94;2075588;28;19975;-46
2023/04/12 04:20:46;;;;;;;;;;;;;;;19.75;53.08;98269.09;2074298;28;20414;-45
2023/04/12 04:21:48;;;;;;;;;;;;;;;19.75;53.08;98275.31;2075087;28;19933;-47
2023/04/12 04:22:52;;;;;;;;;;;;;;;19.77;53.18;98275.88;2074941;28;19971;-45
2023/04/12 04:23:53;;;;;;;;;;;;;;;19.77;53.10;98275.88;2083092;28;20022;-49
2023/04/12 04:24:54;;;;;;;;;;;;;;;19.79;52.81;98273.81;2069400;28;20689;-47
2023/04/12 04:25:56;;;;;;;;;;;;;;;19.78;53.16;98276.72;2074407;28;19940;-46
2023/04/12 04:26:57;;;;;;;;;;;;;;;19.79;53.21;98276.50;2069362;28;19933;-49
2023/04/12 04:28:01;;;;;;;;;;;;;;;19.79;52.86;98268.44;2067314;28;19933;-49
2023/04/12 04:29:02;;;;;;;;;;;;;;;19.80;53.20;98274.63;2064918;28;21246;-46
2023/04/12 04:30:05;;;;;;;;;;;;;;;19.83;52.87;98274.19;2066716;28;20584;-48
2023/04/12 04:31:05;;;;;;;;;;;;;;;19.83;53.17;98275.00;2066401;28;20446;-46
2023/04/12 04:32:07;;;;;;;;;;;;;;;19.86;52.81;98273.75;2070794;28;19932;-50
2023/04/12 04:33:07;;;;;;;;;;;;;;;19.86;52.83;98271.06;2072776;28;19928;-46
2023/04/12 04:34:10;;;;;;;;;;;;;;;19.86;52.97;98268.38;2079298;28;21255;-48
2023/04/12 04:35:15;;;;;;;;;;;;;;;19.86;52.81;98262.97;2072082;28;20019;-45
2023/04/12 04:36:17;;;;;;;;;;;;;;;19.86;52.81;98263.81;2086539;28;19929;-49
2023/04/12 04:37:17;;;;;;;;;;;;;;;19.86;52.84;98260.28;2084919;28;19929;-46
2023/04/12 04:38:19;;;;;;;;;;;;;;;19.85;53.02;98256.78;2075436;28;20123;-47
2023/04/12 04:39:20;;;;;;;;;;;;;;;19.88;52.69;98258.22;2081325;28;20386;-48
2023/04/12 04:40:23;;;;;;;;;;;;;;;19.91;52.89;98256.94;2076499;28;19986;-48
2023/04/12 04:41:24;;;;;;;;;;;;;;;19.90;52.73;98253.44;2074001;28;19928;-49
2023/04/12 04:42:25;;;;;;;;;;;;;;;19.91;52.91;98257.75;2074570;28;20396;-47
2023/04/12 04:43:29;;;;;;;;;;;;;;;19.92;52.65;98261.28;2075855;28;19932;-48
2023/04/12 04:44:30;;;;;;;;;;;;;;;19.91;52.71;98254.25;2076387;28;20090;-46
2023/04/12 04:45:31;;;;;;;;;;;;;;;19.88;52.78;98260.09;2074516;28;19933;-49
2023/04/12 04:46:33;;;;;;;;;;;;;;;19.90;52.75;98258.00;2074658;28;20006;-46
2023/04/12 04:47:33;;;;;;;;;;;;;;;19.92;52.83;98264.81;2076030;28;19940;-46
2023/04/12 04:48:35;;;;;;;;;;;;;;;19.89;52.86;98262.53;2076270;28;20503;-47
2023/04/12 04:49:37;;;;;;;;;;;;;;;19.90;52.70;98263.38;2076684;28;19940;-48
2023/04/12 04:50:38;;;;;;;;;;;;;;;19.91;52.71;98265.03;2075120;28;19929;-46
2023/04/12 04:51:38;;;;;;;;;;;;;;;19.89;52.69;98259.03;2072517;28;19924;-49
2023/04/12 04:52:40;;;;;;;;;;;;;;;19.92;52.94;98256.72;2073414;28;19995;-50
2023/04/12 04:53:40;;;;;;;;;;;;;;;19.94;52.54;98253.81;2074043;28;19928;-46
2023/04/12 04:54:42;;;;;;;;;;;;;;;19.94;52.57;98256.50;2083112;28;19986;-46
2023/04/12 04:55:42;;;;;;;;;;;;;;;19.95;52.93;98258.97;2065038;28;19939;-48
2023/04/12 04:56:44;;;;;;;;;;;;;;;19.91;52.93;98255.06;2073779;28;20386;-46
2023/04/12 04:57:45;;;;;;;;;;;;;;;19.91;52.80;98259.63;2074254;28;20010;-47
2023/04/12 04:58:46;;;;;;;;;;;;;;;19.92;52.89;98266.66;2071237;28;19932;-48
2023/04/12 04:59:47;;;;;;;;;;;;;;;19.91;52.69;98260.44;2074488;28;21976;-48
2023/04/12 05:00:48;;;;;;;;;;;;;;;19.91;52.57;98256.94;2072791;28;19925;-46
2023/04/12 05:01:51;;;;;;;;;;;;;;;19.92;52.84;98255.88;2070974;28;21715;-46
2023/04/12 05:02:51;;;;;;;;;;;;;;;19.91;52.71;98257.75;2072633;28;20651;-47
2023/04/12 05:03:54;;;;;;;;;;;;;;;19.88;53.09;98244.75;2071780;28;19944;-47
2023/04/12 05:04:56;;;;;;;;;;;;;;;19.91;53.07;98254.25;2075542;28;19932;-48
2023/04/12 05:05:57;;;;;;;;;;;;;;;19.94;52.95;98259.19;2076684;28;19932;-47
2023/04/12 05:06:57;;;;;;;;;;;;;;;19.91;52.93;98249.69;2073171;28;20021;-48
2023/04/12 05:07:59;;;;;;;;;;;;;;;19.92;52.94;98255.88;2070894;28;19982;-51
2023/04/12 05:09:01;;;;;;;;;;;;;;;19.91;52.98;98254.25;2075146;28;19929;-46
2023/04/12 05:10:01;;;;;;;;;;;;;;;19.91;52.69;98246.19;2079437;28;20298;-47
2023/04/12 05:11:03;;;;;;;;;;;;;;;19.91;52.67;98254.25;2075689;28;20068;-48
2023/04/12 05:12:03;;;;;;;;;;;;;;;19.92;52.76;98250.50;2073367;28;20078;-47
2023/04/12 05:13:05;;;;;;;;;;;;;;;19.93;52.97;98252.16;2074916;28;19937;-47
2023/04/12 05:14:05;;;;;;;;;;;;;;;19.93;52.92;98239.53;2073601;28;21549;-50
2023/04/12 05:15:07;;;;;;;;;;;;;;;19.89;52.89;98245.56;2070838;28;20378;-49
2023/04/12 05:16:10;;;;;;;;;;;;;;;19.91;52.95;98257.75;2071350;28;19981;-47
2023/04/12 05:17:10;;;;;;;;;;;;;;;19.92;52.96;98255.88;2073248;28;19955;-47
2023/04/12 05:18:12;;;;;;;;;;;;;;;19.92;52.96;98250.50;2070447;28;19940;-50
2023/04/12 05:19:13;;;;;;;;;;;;;;;19.92;52.93;98250.50;2073859;28;21153;-49
2023/04/12 05:20:15;;;;;;;;;;;;;;;19.89;53.05;98253.66;2068164;28;20013;-47
2023/04/12 05:21:16;;;;;;;;;;;;;;;19.89;53.07;98253.66;2069283;28;19932;-49
2023/04/12 05:22:19;;;;;;;;;;;;;;;19.89;53.08;98246.38;2072363;28;20496;-50
2023/04/12 05:23:20;;;;;;;;;;;;;;;19.92;52.94;98255.88;2072489;28;19929;-51